Time;durP1;ratioP1;P1;durP2;ratioP2;P2;SDS_P1;SDS_P2;PMS_P1;PMS_P2;Temp;Humidity;BMP_temperature;BMP_pressure;BME280_temperature;BME280_humidity;BME280_pressure;Samples;Min_cycle;Max_cycle;Signal;HPM_P1;HPM_P2
2023/11/03 00:00:12;;;;;;;3.33;0.70;;;;;;;4.58;100.00;90259.38;2074379;28;20022;-91
2023/11/03 00:01:13;;;;;;;1.30;0.52;;;;;;;4.47;100.00;90264.41;2066315;28;20022;-90
2023/11/03 00:02:15;;;;;;;1.13;0.50;;;;;;;4.49;100.00;90262.06;2082091;28;20056;-90
2023/11/03 00:03:16;;;;;;;3.17;0.65;;;;;;;4.59;100.00;90255.53;2073702;28;20074;-90
2023/11/03 00:04:17;;;;;;;5.00;0.93;;;;;;;4.48;100.00;90263.97;2069958;28;20026;-90
2023/11/03 00:05:18;;;;;;;1.80;0.50;;;;;;;4.48;100.00;90253.41;2074340;28;20022;-90
2023/11/03 00:06:19;;;;;;;0.93;0.32;;;;;;;4.63;100.00;90252.75;2082191;28;20025;-91
2023/11/03 00:07:20;;;;;;;3.03;0.82;;;;;;;4.57;100.00;90252.63;2081203;28;20609;-89
2023/11/03 00:08:21;;;;;;;0.57;0.40;;;;;;;4.52;100.00;90258.50;2073576;28;20018;-89
2023/11/03 00:09:23;;;;;;;1.83;0.90;;;;;;;4.62;100.00;90261.88;2065732;28;20019;-91
2023/11/03 00:10:24;;;;;;;3.55;0.80;;;;;;;4.52;100.00;90261.16;2074286;28;20510;-90
2023/11/03 00:11:27;;;;;;;1.55;0.52;;;;;;;4.53;100.00;90254.69;2073885;28;20100;-91
2023/11/03 00:12:29;;;;;;;1.65;0.50;;;;;;;4.62;100.00;90259.22;2082247;28;20025;-91
2023/11/03 00:13:31;;;;;;;1.27;0.50;;;;;;;4.69;100.00;90256.97;2081990;28;20028;-91
2023/11/03 00:14:33;;;;;;;4.00;0.70;;;;;;;4.71;100.00;90257.25;2088072;28;20736;-90
2023/11/03 00:15:36;;;;;;;3.03;0.75;;;;;;;4.61;100.00;90263.03;2097493;28;20020;-90
2023/11/03 00:16:37;;;;;;;3.75;0.55;;;;;;;4.52;100.00;90253.22;2074427;28;20033;-90
2023/11/03 00:17:38;;;;;;;1.73;0.43;;;;;;;4.55;100.00;90253.06;2066293;28;20066;-91
2023/11/03 00:18:39;;;;;;;2.28;0.45;;;;;;;4.61;100.00;90255.84;2076789;28;20195;-90
2023/11/03 00:19:41;;;;;;;3.42;0.60;;;;;;;4.45;100.00;90256.19;2073927;28;20187;-91
2023/11/03 00:20:42;;;;;;;1.77;0.40;;;;;;;4.41;100.00;90251.06;2074352;28;20105;-90
2023/11/03 00:21:43;;;;;;;2.25;0.50;;;;;;;4.40;100.00;90252.25;2074108;28;20107;-91
2023/11/03 00:22:44;;;;;;;1.65;0.60;;;;;;;4.46;100.00;90266.31;2082283;28;20024;-90
2023/11/03 00:23:45;;;;;;;2.33;0.50;;;;;;;4.40;100.00;90260.19;2073876;28;20018;-90
2023/11/03 00:24:46;;;;;;;3.20;0.50;;;;;;;4.36;100.00;90264.16;2073879;28;20022;-90
2023/11/03 00:25:48;;;;;;;1.95;0.40;;;;;;;4.26;100.00;90264.19;2073821;28;20018;-89
2023/11/03 00:26:54;;;;;;;3.28;0.50;;;;;;;4.26;100.00;90266.13;2064754;28;20037;-91
2023/11/03 00:28:11;;;;;;;1.80;0.40;;;;;;;4.28;100.00;90271.69;2063083;28;20048;-91
2023/11/03 00:29:12;;;;;;;2.05;0.40;;;;;;;4.46;100.00;90268.25;2078474;28;20022;-90
2023/11/03 00:30:13;;;;;;;1.65;0.32;;;;;;;4.47;100.00;90272.34;2078040;28;20025;-90
2023/11/03 00:31:15;;;;;;;1.50;0.50;;;;;;;4.55;100.00;90268.94;2066280;28;20129;-90
2023/11/03 00:32:16;;;;;;;2.97;0.50;;;;;;;4.65;100.00;90277.56;2073791;28;20459;-89
2023/11/03 00:33:17;;;;;;;3.10;0.73;;;;;;;4.67;100.00;90280.50;2065872;28;20502;-90
2023/11/03 00:34:18;;;;;;;1.08;0.40;;;;;;;4.63;100.00;90276.56;2073703;28;20482;-90
2023/11/03 00:35:19;;;;;;;2.08;0.50;;;;;;;4.53;100.00;90286.44;2082071;28;20025;-90
2023/11/03 00:36:20;;;;;;;2.83;0.50;;;;;;;4.42;100.00;90294.09;2083662;28;20060;-89
2023/11/03 00:37:24;;;;;;;2.97;0.65;;;;;;;4.46;100.00;90297.31;2076053;28;20014;-91
2023/11/03 00:38:25;;;;;;;1.58;0.60;;;;;;;4.35;100.00;90300.47;2082903;28;20120;-90
2023/11/03 00:39:26;;;;;;;1.13;0.47;;;;;;;4.35;100.00;90297.09;2075983;28;20077;-90
2023/11/03 00:40:27;;;;;;;2.30;0.30;;;;;;;4.26;100.00;90305.78;2079630;28;20418;-91
2023/11/03 00:41:29;;;;;;;3.58;0.50;;;;;;;4.04;100.00;90311.25;2079031;28;20495;-90
2023/11/03 00:42:30;;;;;;;4.22;0.63;;;;;;;4.19;100.00;90317.38;2082143;28;20020;-90
2023/11/03 00:43:32;;;;;;;2.60;0.55;;;;;;;4.06;100.00;90308.88;2080372;28;20446;-90
2023/11/03 00:44:34;;;;;;;2.47;0.50;;;;;;;4.14;100.00;90314.59;2080265;28;20083;-90
2023/11/03 00:45:35;;;;;;;1.77;0.50;;;;;;;4.12;100.00;90315.03;2073847;28;20041;-90
2023/11/03 00:46:38;;;;;;;1.92;0.50;;;;;;;3.99;100.00;90325.75;2073261;28;20026;-91
2023/11/03 00:47:39;;;;;;;1.17;0.50;;;;;;;4.08;100.00;90322.38;2073865;28;20475;-90
2023/11/03 00:49:00;;;;;;;1.52;0.47;;;;;;;4.14;100.00;90317.25;2075622;28;20144;-90
2023/11/03 00:50:02;;;;;;;1.92;0.65;;;;;;;4.10;100.00;90329.88;2081114;28;20118;-90
2023/11/03 00:51:04;;;;;;;2.42;0.30;;;;;;;3.98;100.00;90332.22;2084098;28;20029;-90
2023/11/03 00:52:08;;;;;;;1.90;0.30;;;;;;;3.91;100.00;90329.91;2073003;28;20037;-91
2023/11/03 00:53:09;;;;;;;1.45;0.50;;;;;;;3.99;100.00;90331.06;2074900;28;20036;-90
2023/11/03 00:54:10;;;;;;;0.40;0.32;;;;;;;4.04;100.00;90330.47;2074008;28;20022;-90
2023/11/03 00:55:11;;;;;;;1.30;0.55;;;;;;;4.01;100.00;90333.28;2073890;28;20018;-90
2023/11/03 00:56:13;;;;;;;1.45;0.43;;;;;;;3.97;100.00;90337.97;2086292;28;20025;-89
2023/11/03 00:57:14;;;;;;;3.08;0.47;;;;;;;3.69;100.00;90337.25;2090528;28;20126;-89
2023/11/03 00:58:15;;;;;;;2.85;0.50;;;;;;;3.97;100.00;90340.63;2090054;28;20071;-91
2023/11/03 00:59:17;;;;;;;0.82;0.38;;;;;;;4.04;100.00;90348.25;2082137;28;20025;-91
2023/11/03 01:00:18;;;;;;;3.80;0.70;;;;;;;3.91;100.00;90353.69;2090575;28;20029;-90
2023/11/03 01:01:19;;;;;;;2.03;0.47;;;;;;;3.99;100.00;90351.47;2082034;28;20029;-90
2023/11/03 01:02:22;;;;;;;3.42;0.77;;;;;;;4.06;100.00;90353.09;2073826;28;20032;-90
2023/11/03 01:03:26;;;;;;;2.38;0.68;;;;;;;3.89;100.00;90366.59;2073735;28;20030;-91
2023/11/03 01:04:26;;;;;;;0.95;0.60;;;;;;;3.86;100.00;90356.91;2080441;28;20117;-90
2023/11/03 01:05:28;;;;;;;2.08;0.50;;;;;;;3.98;100.00;90366.59;2082002;28;20112;-91
2023/11/03 01:06:29;;;;;;;3.80;0.68;;;;;;;3.92;100.00;90365.00;2090188;28;20112;-91
2023/11/03 01:07:30;;;;;;;1.05;0.60;;;;;;;3.92;100.00;90363.06;2080303;28;20026;-90
2023/11/03 01:08:32;;;;;;;1.33;0.50;;;;;;;4.10;100.00;90361.59;2089957;28;20020;-90
2023/11/03 01:09:33;;;;;;;1.55;0.70;;;;;;;4.11;100.00;90363.06;2089695;28;20043;-90
2023/11/03 01:10:34;;;;;;;1.08;0.68;;;;;;;4.08;100.00;90363.94;2073722;28;20025;-90
2023/11/03 01:11:36;;;;;;;4.28;0.82;;;;;;;3.93;100.00;90367.19;2080170;28;20025;-92
2023/11/03 01:12:37;;;;;;;1.27;0.68;;;;;;;4.12;100.00;90364.53;2090182;28;20103;-90
2023/11/03 01:13:41;;;;;;;3.00;0.77;;;;;;;4.08;100.00;90364.66;2081933;28;20108;-90
2023/11/03 01:14:43;;;;;;;2.58;0.57;;;;;;;4.07;100.00;90367.75;2082441;28;20863;-91
2023/11/03 01:15:44;;;;;;;1.90;0.80;;;;;;;3.97;100.00;90372.31;2080674;28;20021;-90
2023/11/03 01:16:45;;;;;;;2.33;0.60;;;;;;;4.12;100.00;90367.16;2081289;28;20021;-90
2023/11/03 01:17:50;;;;;;;4.72;0.93;;;;;;;4.09;100.00;90368.78;2071841;28;20395;-91
2023/11/03 01:18:51;;;;;;;1.52;0.52;;;;;;;3.94;100.00;90371.28;2074542;28;20029;-90
2023/11/03 01:19:52;;;;;;;2.00;0.57;;;;;;;4.07;100.00;90362.47;2079940;28;20060;-91
2023/11/03 01:20:57;;;;;;;2.55;0.60;;;;;;;3.94;100.00;90367.91;2081521;28;20021;-90
2023/11/03 01:21:59;;;;;;;2.60;0.73;;;;;;;3.94;100.00;90373.94;2082372;28;20032;-90
2023/11/03 01:23:00;;;;;;;3.00;0.75;;;;;;;3.88;100.00;90370.41;2082262;28;20192;-90
2023/11/03 01:24:01;;;;;;;1.90;0.70;;;;;;;3.99;100.00;90369.97;2081748;28;20021;-90
2023/11/03 01:25:02;;;;;;;1.58;0.60;;;;;;;4.12;100.00;90370.53;2073737;28;20530;-91
2023/11/03 01:26:04;;;;;;;1.23;0.80;;;;;;;4.06;100.00;90359.09;2082833;28;20029;-90
2023/11/03 01:27:07;;;;;;;2.72;0.70;;;;;;;4.04;100.00;90364.09;2094640;28;20028;-90
2023/11/03 01:28:08;;;;;;;1.38;0.50;;;;;;;4.00;100.00;90364.25;2089541;28;20025;-91
2023/11/03 01:29:12;;;;;;;2.03;0.50;;;;;;;4.04;100.00;90364.09;2073467;28;20509;-91
2023/11/03 01:30:14;;;;;;;1.90;0.60;;;;;;;4.13;100.00;90355.44;2083804;28;20021;-89
2023/11/03 01:31:15;;;;;;;1.38;0.70;;;;;;;4.26;100.00;90358.66;2090169;28;20028;-89
2023/11/03 01:32:17;;;;;;;1.45;0.70;;;;;;;4.16;100.00;90354.53;2081282;28;20521;-90
2023/11/03 01:33:18;;;;;;;2.05;0.57;;;;;;;4.13;100.00;90347.50;2081670;28;20025;-89
2023/11/03 01:34:19;;;;;;;5.22;0.63;;;;;;;4.04;100.00;90343.69;2072868;28;20060;-89
2023/11/03 01:35:21;;;;;;;5.78;0.95;;;;;;;4.03;100.00;90342.22;2080386;28;20112;-90
2023/11/03 01:36:22;;;;;;;1.77;0.70;;;;;;;4.02;100.00;90343.38;2079693;28;20104;-90
2023/11/03 01:37:24;;;;;;;2.75;0.80;;;;;;;3.98;100.00;90334.16;2081646;28;20038;-89
2023/11/03 01:38:25;;;;;;;3.05;0.70;;;;;;;3.84;100.00;90335.47;2089016;28;20135;-90
2023/11/03 01:39:26;;;;;;;0.95;0.52;;;;;;;3.87;100.00;90336.50;2079679;28;20017;-90
2023/11/03 01:40:29;;;;;;;1.60;0.60;;;;;;;4.03;100.00;90336.19;2073301;28;20403;-90
2023/11/03 01:41:30;;;;;;;0.57;0.52;;;;;;;3.94;100.00;90329.00;2065586;28;20121;-89
2023/11/03 01:42:31;;;;;;;2.35;0.60;;;;;;;4.19;100.00;90324.56;2084862;28;20022;-90
2023/11/03 01:43:33;;;;;;;2.78;0.63;;;;;;;4.17;100.00;90325.03;2085739;28;20032;-89
2023/11/03 01:44:34;;;;;;;1.40;0.63;;;;;;;4.09;100.00;90313.28;2072474;28;20112;-90
2023/11/03 01:45:36;;;;;;;0.38;0.35;;;;;;;4.08;100.00;90308.44;2070311;28;20541;-90
2023/11/03 01:46:38;;;;;;;2.13;0.70;;;;;;;4.02;100.00;90311.69;2074121;28;20018;-90
2023/11/03 01:47:39;;;;;;;0.55;0.55;;;;;;;3.94;100.00;90312.41;2073142;28;20034;-90
2023/11/03 01:48:40;;;;;;;1.67;0.60;;;;;;;4.08;100.00;90301.22;2082809;28;20017;-89
2023/11/03 01:49:41;;;;;;;3.53;0.70;;;;;;;4.12;100.00;90296.53;2073048;28;20018;-91
2023/11/03 01:50:42;;;;;;;1.55;0.50;;;;;;;4.02;100.00;90295.09;2073766;28;20505;-90
2023/11/03 01:51:43;;;;;;;4.25;0.65;;;;;;;4.08;100.00;90297.84;2073111;28;20033;-89
2023/11/03 01:52:46;;;;;;;1.08;0.50;;;;;;;4.22;100.00;90297.25;2076866;28;20030;-90
2023/11/03 01:53:47;;;;;;;4.38;0.80;;;;;;;4.23;100.00;90285.50;2065494;28;20022;-90
2023/11/03 01:54:49;;;;;;;2.85;0.70;;;;;;;4.28;100.00;90287.53;2074460;28;20104;-89
2023/11/03 01:55:51;;;;;;;3.92;0.60;;;;;;;4.36;100.00;90283.41;2070820;28;20030;-90
2023/11/03 01:56:53;;;;;;;0.80;0.38;;;;;;;4.31;100.00;90286.66;2077373;28;20033;-89
2023/11/03 01:57:55;;;;;;;2.97;0.60;;;;;;;4.35;100.00;90289.16;2088427;28;20013;-91
2023/11/03 01:59:00;;;;;;;3.72;0.68;;;;;;;4.13;100.00;90287.44;2093678;28;20031;-90
2023/11/03 02:00:04;;;;;;;3.80;0.70;;;;;;;4.16;100.00;90291.09;2081236;28;20467;-90
2023/11/03 02:01:05;;;;;;;2.22;0.57;;;;;;;4.17;100.00;90284.63;2082333;28;20104;-89
2023/11/03 02:02:06;;;;;;;2.20;0.47;;;;;;;4.22;100.00;90284.03;2079835;28;20017;-91
2023/11/03 02:03:07;;;;;;;4.05;0.70;;;;;;;4.27;100.00;90288.72;2071952;28;20029;-90
2023/11/03 02:04:08;;;;;;;4.35;0.90;;;;;;;4.22;100.00;90290.06;2029448;28;20028;-90
2023/11/03 02:05:09;;;;;;;3.63;0.63;;;;;;;4.30;100.00;90287.81;2039468;28;22146;-88
2023/11/03 02:06:10;;;;;;;2.03;0.63;;;;;;;4.38;100.00;90280.31;2029700;28;21237;-90
2023/11/03 02:07:11;;;;;;;3.10;0.80;;;;;;;4.40;100.00;90280.59;2043589;28;20683;-91
2023/11/03 02:08:13;;;;;;;2.60;0.60;;;;;;;4.36;100.00;90282.69;2059158;28;20032;-90
2023/11/03 02:09:13;;;;;;;2.33;0.40;;;;;;;4.42;100.00;90275.59;2046102;28;20104;-91
2023/11/03 02:10:15;;;;;;;0.70;0.43;;;;;;;4.47;100.00;90274.97;2066008;28;20029;-90
2023/11/03 02:11:28;;;;;;;2.70;0.80;;;;;;;4.57;100.00;90273.78;2054307;28;20448;-92
2023/11/03 02:12:36;;;;;;;2.95;0.70;;;;;;;4.58;100.00;90271.88;2061862;28;20023;-90
2023/11/03 02:13:37;;;;;;;2.40;0.70;;;;;;;4.55;100.00;90278.78;2076377;28;20025;-90
2023/11/03 02:14:38;;;;;;;3.38;0.50;;;;;;;4.53;100.00;90276.59;2089254;28;20028;-91
2023/11/03 02:15:39;;;;;;;3.22;0.85;;;;;;;4.62;100.00;90267.88;2080887;28;20454;-90
2023/11/03 02:16:40;;;;;;;1.42;0.47;;;;;;;4.52;100.00;90274.38;2067843;28;20026;-90
2023/11/03 02:17:42;;;;;;;2.13;0.60;;;;;;;4.54;100.00;90264.81;2070741;28;20026;-90
2023/11/03 02:18:43;;;;;;;2.28;0.40;;;;;;;4.51;100.00;90276.28;2081538;28;20022;-90
2023/11/03 02:19:44;;;;;;;0.70;0.40;;;;;;;4.59;100.00;90278.63;2085639;28;20497;-91
2023/11/03 02:20:45;;;;;;;2.03;0.55;;;;;;;4.64;100.00;90276.09;2089428;28;20103;-90
2023/11/03 02:21:46;;;;;;;1.33;0.57;;;;;;;4.61;100.00;90277.00;2079120;28;20407;-91
2023/11/03 02:23:57;;;;;;;1.58;0.40;;;;;;;3.33;100.00;90285.88;2060191;27;20160;-80
2023/11/03 02:24:58;;;;;;;1.42;0.60;;;;;;;3.34;100.00;90292.63;2099777;27;20158;-79
2023/11/03 02:25:59;;;;;;;5.28;0.60;;;;;;;3.54;100.00;90286.91;2090158;27;20115;-77
2023/11/03 02:27:00;;;;;;;3.22;0.52;;;;;;;3.46;100.00;90285.72;2026698;27;20099;-79
2023/11/03 02:28:01;;;;;;;2.78;0.50;;;;;;;3.54;100.00;90289.56;2045509;27;20137;-78
2023/11/03 02:29:06;;;;;;;5.57;0.55;;;;;;;3.51;100.00;90293.81;2052869;27;20027;-77
2023/11/03 02:30:07;;;;;;;1.73;0.60;;;;;;;3.28;100.00;90297.75;2057677;27;20019;-78
2023/11/03 02:31:08;;;;;;;1.25;0.50;;;;;;;3.31;100.00;90303.34;2061573;27;20031;-78
2023/11/03 02:32:10;;;;;;;3.58;0.80;;;;;;;3.26;100.00;90299.38;2058979;28;20110;-77
2023/11/03 02:33:11;;;;;;;4.13;0.52;;;;;;;3.32;100.00;90308.16;2072834;27;20023;-77
2023/11/03 02:34:12;;;;;;;0.77;0.43;;;;;;;3.26;100.00;90300.09;2077487;27;20019;-80
2023/11/03 02:35:15;;;;;;;3.25;0.60;;;;;;;3.23;100.00;90308.91;2085083;27;20031;-79
2023/11/03 02:36:18;;;;;;;2.58;0.50;;;;;;;3.19;100.00;90310.22;2077152;28;20016;-77
2023/11/03 02:37:19;;;;;;;1.60;0.50;;;;;;;3.21;100.00;90308.63;2081865;27;20052;-79
2023/11/03 02:38:20;;;;;;;2.50;0.50;;;;;;;3.21;100.00;90311.25;2109779;28;20051;-79
2023/11/03 02:39:21;;;;;;;2.38;0.50;;;;;;;3.13;100.00;90299.50;2118972;28;20348;-78
2023/11/03 02:40:22;;;;;;;1.02;0.57;;;;;;;3.12;100.00;90297.31;2117102;27;20310;-78
2023/11/03 02:41:23;;;;;;;0.40;0.32;;;;;;;2.96;100.00;90293.03;2116639;28;20103;-78
2023/11/03 02:42:24;;;;;;;1.75;0.43;;;;;;;3.11;100.00;90285.28;2109705;28;20473;-76
2023/11/03 02:43:25;;;;;;;0.70;0.50;;;;;;;3.06;100.00;90289.22;2110137;28;20422;-79
2023/11/03 02:44:26;;;;;;;3.13;0.47;;;;;;;3.23;100.00;90294.97;2115286;28;20024;-78
2023/11/03 02:45:27;;;;;;;1.95;0.60;;;;;;;3.38;100.00;90295.88;2116477;28;20019;-78
2023/11/03 02:46:29;;;;;;;0.60;0.40;;;;;;;3.31;100.00;90292.78;2060954;27;20953;-77
2023/11/03 02:47:30;;;;;;;1.38;0.60;;;;;;;3.22;100.00;90291.59;2029638;27;20034;-77
2023/11/03 02:48:31;;;;;;;1.30;0.60;;;;;;;3.32;100.00;90289.69;2044645;27;20109;-78
2023/11/03 02:49:33;;;;;;;0.98;0.70;;;;;;;3.29;100.00;90285.28;2053926;27;20034;-79
2023/11/03 02:50:34;;;;;;;1.40;0.68;;;;;;;3.21;100.00;90286.75;2052396;27;20023;-78
2023/11/03 02:51:35;;;;;;;3.03;0.60;;;;;;;3.25;100.00;90293.38;2049426;28;20083;-79
2023/11/03 02:52:36;;;;;;;1.33;0.50;;;;;;;3.26;100.00;90292.19;2067016;27;20077;-79
2023/11/03 02:53:37;;;;;;;0.85;0.40;;;;;;;3.11;100.00;90295.81;2082688;27;20031;-76
2023/11/03 02:54:38;;;;;;;0.93;0.50;;;;;;;3.13;100.00;90299.50;2091573;27;20022;-78
2023/11/03 02:55:39;;;;;;;14.70;1.33;;;;;;;3.18;100.00;90304.19;2100059;27;20101;-79
2023/11/03 02:56:40;;;;;;;1.08;0.52;;;;;;;3.14;100.00;90308.88;2113509;27;20027;-79
2023/11/03 02:57:41;;;;;;;0.85;0.52;;;;;;;2.95;100.00;90304.75;2118544;27;20035;-77
2023/11/03 02:58:43;;;;;;;1.27;0.60;;;;;;;3.17;100.00;90302.00;2106407;28;20046;-77
2023/11/03 02:59:44;;;;;;;1.75;0.55;;;;;;;3.23;100.00;90305.53;2108153;28;20019;-79
2023/11/03 03:00:45;;;;;;;1.25;0.60;;;;;;;3.36;100.00;90314.03;2114286;28;20420;-79
2023/11/03 03:01:46;;;;;;;1.38;0.57;;;;;;;3.33;100.00;90308.91;2110270;28;20110;-78
2023/11/03 03:02:47;;;;;;;0.63;0.40;;;;;;;3.16;100.00;90305.78;2112179;28;20550;-79
2023/11/03 03:03:48;;;;;;;2.30;0.60;;;;;;;2.97;100.00;90300.50;2109150;28;20102;-78
2023/11/03 03:04:49;;;;;;;1.60;0.70;;;;;;;3.06;100.00;90306.97;2107889;28;20016;-79
2023/11/03 03:05:50;;;;;;;2.53;0.60;;;;;;;3.09;100.00;90306.09;2109585;28;20129;-79
2023/11/03 03:06:51;;;;;;;1.27;0.52;;;;;;;3.01;100.00;90297.72;2106708;28;20044;-77
2023/11/03 03:07:52;;;;;;;0.85;0.50;;;;;;;3.00;100.00;90299.63;2118463;28;20046;-76
2023/11/03 03:08:53;;;;;;;1.00;0.50;;;;;;;3.25;100.00;90297.91;2116385;28;20020;-77
2023/11/03 03:09:54;;;;;;;1.50;0.60;;;;;;;3.37;100.00;90304.94;2114975;28;20028;-78
2023/11/03 03:10:55;;;;;;;1.00;0.50;;;;;;;3.23;100.00;90303.63;2117610;28;20885;-80
2023/11/03 03:11:57;;;;;;;1.85;0.50;;;;;;;3.11;100.00;90306.38;2120340;28;20027;-76
2023/11/03 03:12:58;;;;;;;0.77;0.50;;;;;;;3.13;100.00;90301.41;2115824;28;20524;-79
2023/11/03 03:13:59;;;;;;;2.05;1.20;;;;;;;3.16;100.00;90301.28;2108892;28;20026;-77
2023/11/03 03:15:00;;;;;;;3.88;0.80;;;;;;;2.99;100.00;90298.16;2106504;28;20016;-77
2023/11/03 03:16:01;;;;;;;2.22;0.52;;;;;;;3.12;100.00;90310.50;2116396;28;20160;-77
2023/11/03 03:17:02;;;;;;;1.17;0.30;;;;;;;3.26;100.00;90307.28;2116544;28;20533;-79
2023/11/03 03:18:04;;;;;;;2.17;0.50;;;;;;;3.17;100.00;90315.19;2115455;28;20027;-77
2023/11/03 03:19:06;;;;;;;1.08;0.50;;;;;;;3.13;100.00;90310.06;2116015;28;20189;-78
2023/11/03 03:20:07;;;;;;;1.00;0.45;;;;;;;3.18;100.00;90309.47;2118678;28;20098;-78
2023/11/03 03:21:08;;;;;;;2.75;0.60;;;;;;;3.24;100.00;90307.00;2117414;28;20353;-76
2023/11/03 03:22:09;;;;;;;1.58;0.55;;;;;;;3.14;100.00;90311.53;2119247;28;20041;-79
2023/11/03 03:23:10;;;;;;;2.10;0.60;;;;;;;3.04;100.00;90312.69;2114415;28;20100;-76
2023/11/03 03:24:11;;;;;;;2.47;0.60;;;;;;;3.01;100.00;90316.91;2118972;27;20030;-79
2023/11/03 03:25:12;;;;;;;1.35;0.60;;;;;;;3.05;100.00;90322.06;2109789;28;20078;-76
2023/11/03 03:26:13;;;;;;;4.10;0.50;;;;;;;2.98;100.00;90322.31;2109679;28;20020;-79
2023/11/03 03:27:14;;;;;;;1.75;0.57;;;;;;;3.03;100.00;90330.44;2110113;28;20107;-79
2023/11/03 03:28:15;;;;;;;1.85;0.50;;;;;;;3.14;100.00;90322.06;2107999;28;20035;-77
2023/11/03 03:29:16;;;;;;;2.67;0.60;;;;;;;3.15;100.00;90328.09;2103801;28;20081;-79
2023/11/03 03:30:17;;;;;;;0.98;0.75;;;;;;;3.35;100.00;90330.34;2103662;28;20028;-79
2023/11/03 03:31:18;;;;;;;2.90;0.60;;;;;;;3.28;100.00;90321.50;2116326;28;20020;-77
2023/11/03 03:32:19;;;;;;;2.70;0.60;;;;;;;3.26;100.00;90315.22;2116654;27;20034;-77
2023/11/03 03:33:20;;;;;;;2.45;0.60;;;;;;;3.19;100.00;90315.50;2115669;28;20012;-79
2023/11/03 03:34:21;;;;;;;1.92;0.60;;;;;;;3.13;100.00;90315.34;2110050;28;20020;-77
2023/11/03 03:35:22;;;;;;;0.98;0.70;;;;;;;3.23;100.00;90319.44;2106138;28;20051;-79
2023/11/03 03:36:23;;;;;;;1.23;0.70;;;;;;;3.15;100.00;90314.91;2095927;28;20039;-77
2023/11/03 03:37:24;;;;;;;2.85;0.80;;;;;;;3.27;100.00;90316.69;2086304;28;20529;-78
2023/11/03 03:38:25;;;;;;;2.45;0.70;;;;;;;3.16;100.00;90316.34;2093607;28;20039;-77
2023/11/03 03:39:26;;;;;;;1.58;0.77;;;;;;;3.29;100.00;90309.03;2092038;28;20575;-76
2023/11/03 03:40:27;;;;;;;2.15;0.73;;;;;;;3.35;100.00;90315.22;2024216;27;20039;-78
2023/11/03 03:41:28;;;;;;;1.17;0.60;;;;;;;3.39;100.00;90313.19;2025593;28;20030;-77
2023/11/03 03:42:29;;;;;;;1.38;0.65;;;;;;;3.38;100.00;90313.59;2032014;28;20155;-77
2023/11/03 03:43:30;;;;;;;1.85;0.80;;;;;;;3.37;100.00;90318.16;2052559;27;20085;-79
2023/11/03 03:44:32;;;;;;;0.93;0.57;;;;;;;3.23;100.00;90318.72;2061482;27;20031;-79
2023/11/03 03:45:33;;;;;;;1.75;0.60;;;;;;;3.37;100.00;90314.78;2072242;27;20034;-77
2023/11/03 03:46:37;;;;;;;2.20;0.88;;;;;;;3.38;100.00;90317.00;2078975;27;20054;-78
2023/11/03 03:47:38;;;;;;;3.08;0.70;;;;;;;3.54;100.00;90318.59;2085705;28;20069;-78
2023/11/03 03:48:39;;;;;;;2.85;1.00;;;;;;;3.37;100.00;90320.78;2094117;27;20150;-79
2023/11/03 03:49:40;;;;;;;2.85;0.80;;;;;;;3.49;100.00;90322.56;2107289;27;20760;-77
2023/11/03 03:50:41;;;;;;;1.77;0.80;;;;;;;3.51;100.00;90314.94;2108193;28;20031;-79
2023/11/03 03:51:42;;;;;;;2.47;0.77;;;;;;;3.48;100.00;90320.38;2107726;28;20113;-79
2023/11/03 03:52:43;;;;;;;2.03;0.77;;;;;;;3.64;100.00;90325.34;2113648;28;20019;-80
2023/11/03 03:53:44;;;;;;;1.65;0.80;;;;;;;3.77;100.00;90314.63;2104701;28;20020;-78
2023/11/03 03:54:45;;;;;;;2.75;0.75;;;;;;;3.76;100.00;90323.72;2110551;28;20081;-79
2023/11/03 03:55:48;;;;;;;1.05;0.73;;;;;;;3.73;100.00;90321.97;2113101;28;20023;-79
2023/11/03 03:56:49;;;;;;;2.45;1.00;;;;;;;3.83;100.00;90317.44;2113524;28;20027;-77
2023/11/03 03:57:50;;;;;;;1.23;0.77;;;;;;;3.89;100.00;90320.94;2100897;28;20441;-78
2023/11/03 03:58:52;;;;;;;1.83;0.73;;;;;;;3.75;100.00;90322.28;2096032;28;20025;-77
2023/11/03 03:59:53;;;;;;;1.73;0.80;;;;;;;3.70;100.00;90320.97;2104417;28;20020;-79
2023/11/03 04:00:54;;;;;;;2.55;0.82;;;;;;;3.64;100.00;90327.25;2105788;27;20077;-77
2023/11/03 04:01:55;;;;;;;2.85;0.80;;;;;;;3.64;100.00;90329.91;2108995;28;20036;-80
2023/11/03 04:02:56;;;;;;;3.20;1.00;;;;;;;3.72;100.00;90326.53;2072309;28;20554;-78
2023/11/03 04:03:57;;;;;;;1.88;0.73;;;;;;;3.76;100.00;90327.09;2029166;27;20032;-77
2023/11/03 04:04:59;;;;;;;2.92;0.80;;;;;;;3.74;100.00;90336.66;2046709;27;20586;-78
2023/11/03 04:06:00;;;;;;;4.00;1.13;;;;;;;3.78;100.00;90327.41;2075747;28;22540;-77
2023/11/03 04:07:01;;;;;;;4.07;0.88;;;;;;;3.71;100.00;90340.91;2078932;27;20051;-79
2023/11/03 04:08:02;;;;;;;3.25;0.82;;;;;;;3.58;100.00;90339.59;2030530;27;21187;-77
2023/11/03 04:09:03;;;;;;;3.33;0.90;;;;;;;3.70;100.00;90339.44;2039989;27;20023;-78
2023/11/03 04:10:05;;;;;;;2.75;0.90;;;;;;;3.84;100.00;90334.75;2044608;27;21549;-77
2023/11/03 04:11:06;;;;;;;1.70;1.00;;;;;;;3.81;100.00;90339.00;2049516;27;20152;-78
2023/11/03 04:12:08;;;;;;;4.28;1.08;;;;;;;3.90;100.00;90341.63;2073735;27;20018;-77
2023/11/03 04:13:09;;;;;;;1.50;0.90;;;;;;;3.67;100.00;90336.94;2081430;27;20023;-79
2023/11/03 04:14:10;;;;;;;3.40;0.70;;;;;;;3.65;100.00;90341.94;2086801;27;20026;-78
2023/11/03 04:15:10;;;;;;;2.65;0.90;;;;;;;3.54;100.00;90340.47;2094109;27;20158;-79
2023/11/03 04:16:11;;;;;;;3.42;1.02;;;;;;;3.48;100.00;90341.50;2105349;27;22122;-77
2023/11/03 04:17:12;;;;;;;3.70;0.80;;;;;;;3.64;100.00;90343.09;2106639;27;20043;-79
2023/11/03 04:18:13;;;;;;;3.78;0.93;;;;;;;3.61;100.00;90338.72;2109810;28;20018;-76
2023/11/03 04:19:14;;;;;;;2.38;0.88;;;;;;;3.46;100.00;90339.28;2109945;28;20130;-78
2023/11/03 04:20:15;;;;;;;4.25;0.70;;;;;;;3.52;100.00;90342.09;2111784;27;20145;-79
2023/11/03 04:21:16;;;;;;;2.40;0.90;;;;;;;3.54;100.00;90348.38;2117379;27;20020;-77
2023/11/03 04:22:17;;;;;;;2.40;0.98;;;;;;;3.56;100.00;90347.19;2117229;27;20098;-78
2023/11/03 04:23:18;;;;;;;3.00;1.00;;;;;;;3.59;100.00;90341.78;2117925;27;20043;-78
2023/11/03 04:24:19;;;;;;;4.55;0.80;;;;;;;3.73;100.00;90337.81;2112195;28;20109;-77
2023/11/03 04:25:20;;;;;;;3.20;1.25;;;;;;;3.88;100.00;90341.34;2101520;28;21048;-79
2023/11/03 04:26:22;;;;;;;3.33;0.90;;;;;;;3.75;100.00;90336.22;2107171;28;20032;-77
2023/11/03 04:27:23;;;;;;;3.67;0.90;;;;;;;3.69;100.00;90339.91;2071671;28;20211;-78
2023/11/03 04:28:24;;;;;;;3.08;0.98;;;;;;;3.73;100.00;90337.81;2023973;27;21489;-79
2023/11/03 04:29:25;;;;;;;2.40;1.00;;;;;;;3.75;100.00;90333.56;2037955;27;20031;-79
2023/11/03 04:30:26;;;;;;;1.00;0.85;;;;;;;3.79;100.00;90333.44;2034587;28;22362;-79
2023/11/03 04:31:27;;;;;;;1.20;0.75;;;;;;;3.75;100.00;90333.56;2036416;28;20020;-78
2023/11/03 04:32:28;;;;;;;2.75;0.80;;;;;;;3.64;100.00;90337.81;2063477;27;20709;-77
2023/11/03 04:33:29;;;;;;;1.90;0.95;;;;;;;3.54;100.00;90340.47;2077899;27;20033;-77
2023/11/03 04:34:29;;;;;;;1.35;0.70;;;;;;;3.68;100.00;90344.41;2081850;27;20055;-79
2023/11/03 04:35:30;;;;;;;4.82;0.90;;;;;;;3.69;100.00;90345.91;2090341;27;20031;-79
2023/11/03 04:36:31;;;;;;;2.67;1.05;;;;;;;3.67;100.00;90342.97;2110491;27;20199;-76
2023/11/03 04:37:32;;;;;;;1.40;0.63;;;;;;;3.64;100.00;90337.81;2108268;27;20023;-80
2023/11/03 04:38:33;;;;;;;1.17;0.88;;;;;;;3.53;100.00;90352.19;2111366;27;20023;-80
2023/11/03 04:39:34;;;;;;;2.38;0.82;;;;;;;3.43;100.00;90344.72;2097212;28;20366;-77
2023/11/03 04:40:35;;;;;;;4.68;0.90;;;;;;;3.51;100.00;90359.84;2103638;28;20477;-79
2023/11/03 04:41:36;;;;;;;3.17;0.90;;;;;;;3.65;100.00;90342.69;2118991;27;20015;-78
2023/11/03 04:42:38;;;;;;;0.85;0.70;;;;;;;3.69;100.00;90345.19;2108246;28;20061;-79
2023/11/03 04:43:39;;;;;;;1.20;0.85;;;;;;;3.48;100.00;90341.50;2109484;27;20014;-76
2023/11/03 04:44:40;;;;;;;1.42;0.80;;;;;;;3.40;100.00;90345.59;2117166;27;20049;-78
2023/11/03 04:45:41;;;;;;;2.83;0.82;;;;;;;3.43;100.00;90339.44;2111922;28;20015;-79
2023/11/03 04:46:42;;;;;;;3.40;1.35;;;;;;;3.49;100.00;90350.88;2104949;28;20097;-78
2023/11/03 04:47:43;;;;;;;4.05;0.70;;;;;;;3.58;100.00;90347.50;2110304;28;20121;-77
2023/11/03 04:48:45;;;;;;;0.95;0.63;;;;;;;3.54;100.00;90347.66;2119252;27;20027;-80
2023/11/03 04:49:46;;;;;;;2.33;0.80;;;;;;;3.56;100.00;90341.91;2113214;28;20011;-78
2023/11/03 04:50:47;;;;;;;2.15;0.68;;;;;;;3.52;100.00;90340.19;2101601;28;20598;-77